sensor_id;sensor_type;location;lat;lon;timestamp;temperature;humidity
74101;DHT22;62462;52.530;21.682;2022-11-15T00:01:36;9.10;77.60
74101;DHT22;62462;52.530;21.682;2022-11-15T00:04:05;9.10;77.90
74101;DHT22;62462;52.530;21.682;2022-11-15T00:06:32;9.10;77.90
74101;DHT22;62462;52.530;21.682;2022-11-15T00:08:59;9.10;77.90
74101;DHT22;62462;52.530;21.682;2022-11-15T00:11:25;9.10;77.80
74101;DHT22;62462;52.530;21.682;2022-11-15T00:13:50;9.10;78.10
74101;DHT22;62462;52.530;21.682;2022-11-15T00:16:16;9.10;77.90
74101;DHT22;62462;52.530;21.682;2022-11-15T00:18:42;9.00;77.80
74101;DHT22;62462;52.530;21.682;2022-11-15T00:21:11;9.10;78.10
74101;DHT22;62462;52.530;21.682;2022-11-15T00:23:37;9.10;78.10
74101;DHT22;62462;52.530;21.682;2022-11-15T00:26:03;9.00;78.20
74101;DHT22;62462;52.530;21.682;2022-11-15T00:28:29;9.10;78.20
74101;DHT22;62462;52.530;21.682;2022-11-15T00:31:03;9.10;78.20
74101;DHT22;62462;52.530;21.682;2022-11-15T00:33:29;9.10;78.20
74101;DHT22;62462;52.530;21.682;2022-11-15T00:36:07;9.10;78.10
74101;DHT22;62462;52.530;21.682;2022-11-15T00:38:35;9.10;78.00
74101;DHT22;62462;52.530;21.682;2022-11-15T00:41:03;9.00;78.30
74101;DHT22;62462;52.530;21.682;2022-11-15T00:43:29;9.00;78.60
74101;DHT22;62462;52.530;21.682;2022-11-15T00:45:55;9.00;78.50
74101;DHT22;62462;52.530;21.682;2022-11-15T00:48:21;9.00;78.60
74101;DHT22;62462;52.530;21.682;2022-11-15T00:50:48;9.00;78.50
74101;DHT22;62462;52.530;21.682;2022-11-15T00:53:13;9.10;78.70
74101;DHT22;62462;52.530;21.682;2022-11-15T00:55:39;9.10;78.40
74101;DHT22;62462;52.530;21.682;2022-11-15T00:58:05;9.10;78.30
74101;DHT22;62462;52.530;21.682;2022-11-15T01:00:30;9.10;78.30
74101;DHT22;62462;52.530;21.682;2022-11-15T01:02:56;9.00;78.10
74101;DHT22;62462;52.530;21.682;2022-11-15T01:05:22;9.00;78.50
74101;DHT22;62462;52.530;21.682;2022-11-15T01:07:51;9.00;78.60
74101;DHT22;62462;52.530;21.682;2022-11-15T01:10:18;8.90;78.70
74101;DHT22;62462;52.530;21.682;2022-11-15T01:12:43;9.00;78.90
74101;DHT22;62462;52.530;21.682;2022-11-15T01:15:09;8.90;79.00
74101;DHT22;62462;52.530;21.682;2022-11-15T01:17:35;9.00;79.10
74101;DHT22;62462;52.530;21.682;2022-11-15T01:20:01;9.00;79.00
74101;DHT22;62462;52.530;21.682;2022-11-15T01:22:26;9.00;79.00
74101;DHT22;62462;52.530;21.682;2022-11-15T01:24:52;9.00;79.00
74101;DHT22;62462;52.530;21.682;2022-11-15T01:27:18;9.00;78.80
74101;DHT22;62462;52.530;21.682;2022-11-15T01:29:43;9.00;78.90
74101;DHT22;62462;52.530;21.682;2022-11-15T01:32:09;9.10;78.70
74101;DHT22;62462;52.530;21.682;2022-11-15T01:34:35;9.10;78.80
74101;DHT22;62462;52.530;21.682;2022-11-15T01:37:00;9.00;78.60
74101;DHT22;62462;52.530;21.682;2022-11-15T01:39:26;9.00;78.80
74101;DHT22;62462;52.530;21.682;2022-11-15T01:41:52;9.00;78.80
74101;DHT22;62462;52.530;21.682;2022-11-15T01:44:38;9.00;79.00
74101;DHT22;62462;52.530;21.682;2022-11-15T01:47:24;9.00;79.00
74101;DHT22;62462;52.530;21.682;2022-11-15T01:49:58;9.00;79.10
74101;DHT22;62462;52.530;21.682;2022-11-15T01:52:28;9.00;79.20
74101;DHT22;62462;52.530;21.682;2022-11-15T01:55:18;9.10;79.90
74101;DHT22;62462;52.530;21.682;2022-11-15T01:57:46;9.10;78.80
74101;DHT22;62462;52.530;21.682;2022-11-15T02:00:14;9.10;79.70
74101;DHT22;62462;52.530;21.682;2022-11-15T02:02:40;9.10;78.80
74101;DHT22;62462;52.530;21.682;2022-11-15T02:05:06;9.00;78.80
74101;DHT22;62462;52.530;21.682;2022-11-15T02:07:34;9.00;78.80
74101;DHT22;62462;52.530;21.682;2022-11-15T02:10:08;9.00;78.80
74101;DHT22;62462;52.530;21.682;2022-11-15T02:12:34;9.00;79.00
74101;DHT22;62462;52.530;21.682;2022-11-15T02:15:02;9.00;79.20
74101;DHT22;62462;52.530;21.682;2022-11-15T02:34:03;8.90;79.70
74101;DHT22;62462;52.530;21.682;2022-11-15T02:39:41;8.80;79.90
74101;DHT22;62462;52.530;21.682;2022-11-15T02:42:13;8.80;80.00
74101;DHT22;62462;52.530;21.682;2022-11-15T02:45:05;8.70;80.10
74101;DHT22;62462;52.530;21.682;2022-11-15T02:47:41;8.70;80.20
74101;DHT22;62462;52.530;21.682;2022-11-15T02:50:11;8.70;81.30
74101;DHT22;62462;52.530;21.682;2022-11-15T02:52:37;8.80;80.40
74101;DHT22;62462;52.530;21.682;2022-11-15T02:55:04;8.80;80.40
74101;DHT22;62462;52.530;21.682;2022-11-15T02:58:27;8.80;80.40
74101;DHT22;62462;52.530;21.682;2022-11-15T03:00:35;8.80;80.50
74101;DHT22;62462;52.530;21.682;2022-11-15T03:06:04;8.80;80.30
74101;DHT22;62462;52.530;21.682;2022-11-15T03:08:31;8.80;80.00
74101;DHT22;62462;52.530;21.682;2022-11-15T03:11:08;8.80;80.20
74101;DHT22;62462;52.530;21.682;2022-11-15T03:13:56;8.80;80.20
74101;DHT22;62462;52.530;21.682;2022-11-15T03:17:36;8.70;80.30
74101;DHT22;62462;52.530;21.682;2022-11-15T03:19:50;8.70;80.50
74101;DHT22;62462;52.530;21.682;2022-11-15T03:22:19;8.70;80.70
74101;DHT22;62462;52.530;21.682;2022-11-15T03:24:50;8.70;80.70
74101;DHT22;62462;52.530;21.682;2022-11-15T03:27:21;8.70;80.80
74101;DHT22;62462;52.530;21.682;2022-11-15T03:29:52;8.80;80.70
74101;DHT22;62462;52.530;21.682;2022-11-15T03:32:25;8.80;80.50
74101;DHT22;62462;52.530;21.682;2022-11-15T03:35:11;8.70;80.50
74101;DHT22;62462;52.530;21.682;2022-11-15T03:40:10;8.60;80.80
74101;DHT22;62462;52.530;21.682;2022-11-15T03:42:43;8.60;82.00
74101;DHT22;62462;52.530;21.682;2022-11-15T03:45:19;8.60;81.10
74101;DHT22;62462;52.530;21.682;2022-11-15T03:48:14;8.60;81.10
74101;DHT22;62462;52.530;21.682;2022-11-15T03:50:43;8.60;82.00
74101;DHT22;62462;52.530;21.682;2022-11-15T03:53:10;8.60;81.20
74101;DHT22;62462;52.530;21.682;2022-11-15T03:55:36;8.60;81.20
74101;DHT22;62462;52.530;21.682;2022-11-15T03:58:01;8.60;81.30
74101;DHT22;62462;52.530;21.682;2022-11-15T04:00:28;8.60;81.30
74101;DHT22;62462;52.530;21.682;2022-11-15T04:02:54;8.50;81.40
74101;DHT22;62462;52.530;21.682;2022-11-15T04:05:19;8.50;81.40
74101;DHT22;62462;52.530;21.682;2022-11-15T04:07:45;8.50;81.50
74101;DHT22;62462;52.530;21.682;2022-11-15T04:10:12;8.60;81.50
74101;DHT22;62462;52.530;21.682;2022-11-15T04:12:42;8.60;81.30
74101;DHT22;62462;52.530;21.682;2022-11-15T04:15:13;8.60;81.30
74101;DHT22;62462;52.530;21.682;2022-11-15T04:17:43;8.60;81.30
74101;DHT22;62462;52.530;21.682;2022-11-15T04:20:10;8.60;81.30
74101;DHT22;62462;52.530;21.682;2022-11-15T04:22:57;8.70;81.10
74101;DHT22;62462;52.530;21.682;2022-11-15T04:25:42;8.70;81.10
74101;DHT22;62462;52.530;21.682;2022-11-15T04:28:09;8.70;81.10
74101;DHT22;62462;52.530;21.682;2022-11-15T04:30:35;8.70;81.10
74101;DHT22;62462;52.530;21.682;2022-11-15T04:33:01;8.60;81.10
74101;DHT22;62462;52.530;21.682;2022-11-15T04:35:26;8.60;81.10
74101;DHT22;62462;52.530;21.682;2022-11-15T04:37:53;8.60;82.20
74101;DHT22;62462;52.530;21.682;2022-11-15T04:40:18;8.60;81.50
74101;DHT22;62462;52.530;21.682;2022-11-15T04:42:44;8.60;81.20
74101;DHT22;62462;52.530;21.682;2022-11-15T04:45:10;8.60;81.10
74101;DHT22;62462;52.530;21.682;2022-11-15T04:47:36;8.60;81.30
74101;DHT22;62462;52.530;21.682;2022-11-15T04:50:03;8.60;81.30
74101;DHT22;62462;52.530;21.682;2022-11-15T04:52:29;8.60;81.40
74101;DHT22;62462;52.530;21.682;2022-11-15T04:54:54;8.60;81.40
74101;DHT22;62462;52.530;21.682;2022-11-15T04:57:20;8.60;81.40
74101;DHT22;62462;52.530;21.682;2022-11-15T04:59:46;8.60;81.50
74101;DHT22;62462;52.530;21.682;2022-11-15T05:02:11;8.70;81.40
74101;DHT22;62462;52.530;21.682;2022-11-15T05:04:37;8.60;81.30
74101;DHT22;62462;52.530;21.682;2022-11-15T05:07:03;8.60;81.50
74101;DHT22;62462;52.530;21.682;2022-11-15T05:09:32;8.60;81.50
74101;DHT22;62462;52.530;21.682;2022-11-15T05:11:57;8.60;81.70
74101;DHT22;62462;52.530;21.682;2022-11-15T05:14:23;8.60;81.70
74101;DHT22;62462;52.530;21.682;2022-11-15T05:16:49;8.60;81.70
74101;DHT22;62462;52.530;21.682;2022-11-15T05:19:15;8.70;81.60
74101;DHT22;62462;52.530;21.682;2022-11-15T05:21:41;8.70;81.60
74101;DHT22;62462;52.530;21.682;2022-11-15T05:24:08;8.70;81.40
74101;DHT22;62462;52.530;21.682;2022-11-15T05:26:34;8.80;81.30
74101;DHT22;62462;52.530;21.682;2022-11-15T05:29:00;8.70;81.20
74101;DHT22;62462;52.530;21.682;2022-11-15T05:31:26;8.70;81.30
74101;DHT22;62462;52.530;21.682;2022-11-15T05:33:54;8.70;81.40
74101;DHT22;62462;52.530;21.682;2022-11-15T05:36:31;8.70;81.50
74101;DHT22;62462;52.530;21.682;2022-11-15T05:38:59;8.70;81.50
74101;DHT22;62462;52.530;21.682;2022-11-15T05:41:34;8.80;81.60
74101;DHT22;62462;52.530;21.682;2022-11-15T05:44:01;8.70;81.30
74101;DHT22;62462;52.530;21.682;2022-11-15T05:46:28;8.60;81.60
74101;DHT22;62462;52.530;21.682;2022-11-15T05:48:55;8.60;81.90
74101;DHT22;62462;52.530;21.682;2022-11-15T05:51:23;8.60;81.90
74101;DHT22;62462;52.530;21.682;2022-11-15T05:53:50;8.60;81.90
74101;DHT22;62462;52.530;21.682;2022-11-15T05:56:16;8.60;81.90
74101;DHT22;62462;52.530;21.682;2022-11-15T05:58:42;8.60;81.70
74101;DHT22;62462;52.530;21.682;2022-11-15T06:01:08;8.70;81.70
74101;DHT22;62462;52.530;21.682;2022-11-15T06:03:34;8.70;81.80
74101;DHT22;62462;52.530;21.682;2022-11-15T06:06:01;8.70;81.60
74101;DHT22;62462;52.530;21.682;2022-11-15T06:08:27;8.60;81.90
74101;DHT22;62462;52.530;21.682;2022-11-15T06:10:52;8.50;82.10
74101;DHT22;62462;52.530;21.682;2022-11-15T06:13:18;8.60;82.30
74101;DHT22;62462;52.530;21.682;2022-11-15T06:15:44;8.60;82.20
74101;DHT22;62462;52.530;21.682;2022-11-15T06:18:09;8.50;82.50
74101;DHT22;62462;52.530;21.682;2022-11-15T06:20:35;8.50;82.70
74101;DHT22;62462;52.530;21.682;2022-11-15T06:23:03;8.40;82.90
74101;DHT22;62462;52.530;21.682;2022-11-15T06:25:30;8.30;83.40
74101;DHT22;62462;52.530;21.682;2022-11-15T06:27:57;8.40;83.40
74101;DHT22;62462;52.530;21.682;2022-11-15T06:30:24;8.40;83.20
74101;DHT22;62462;52.530;21.682;2022-11-15T06:32:50;8.40;83.10
74101;DHT22;62462;52.530;21.682;2022-11-15T06:35:17;8.40;83.10
74101;DHT22;62462;52.530;21.682;2022-11-15T06:37:43;8.40;83.30
74101;DHT22;62462;52.530;21.682;2022-11-15T06:40:09;8.40;83.30
74101;DHT22;62462;52.530;21.682;2022-11-15T06:42:35;8.50;83.20
74101;DHT22;62462;52.530;21.682;2022-11-15T06:45:01;8.50;82.50
74101;DHT22;62462;52.530;21.682;2022-11-15T06:47:27;8.40;82.80
74101;DHT22;62462;52.530;21.682;2022-11-15T06:49:53;8.50;83.00
74101;DHT22;62462;52.530;21.682;2022-11-15T06:52:19;8.40;83.10
74101;DHT22;62462;52.530;21.682;2022-11-15T06:54:45;8.30;83.30
74101;DHT22;62462;52.530;21.682;2022-11-15T06:57:11;8.30;83.50
74101;DHT22;62462;52.530;21.682;2022-11-15T06:59:37;8.30;83.50
74101;DHT22;62462;52.530;21.682;2022-11-15T07:02:03;8.40;83.40
74101;DHT22;62462;52.530;21.682;2022-11-15T07:04:29;8.30;83.50
74101;DHT22;62462;52.530;21.682;2022-11-15T07:06:54;8.40;83.40
74101;DHT22;62462;52.530;21.682;2022-11-15T07:09:20;8.40;83.70
74101;DHT22;62462;52.530;21.682;2022-11-15T07:11:46;8.30;83.70
74101;DHT22;62462;52.530;21.682;2022-11-15T07:14:12;8.30;83.70
74101;DHT22;62462;52.530;21.682;2022-11-15T07:16:38;8.30;83.90
74101;DHT22;62462;52.530;21.682;2022-11-15T07:19:03;8.30;84.00
74101;DHT22;62462;52.530;21.682;2022-11-15T07:21:29;8.30;83.80
74101;DHT22;62462;52.530;21.682;2022-11-15T07:23:55;8.40;83.70
74101;DHT22;62462;52.530;21.682;2022-11-15T07:26:21;8.40;83.70
74101;DHT22;62462;52.530;21.682;2022-11-15T07:28:47;8.40;83.40
74101;DHT22;62462;52.530;21.682;2022-11-15T07:31:12;8.50;83.40
74101;DHT22;62462;52.530;21.682;2022-11-15T07:33:38;8.50;84.20
74101;DHT22;62462;52.530;21.682;2022-11-15T07:36:05;8.60;83.10
74101;DHT22;62462;52.530;21.682;2022-11-15T07:38:32;8.60;83.00
74101;DHT22;62462;52.530;21.682;2022-11-15T07:41:00;8.60;83.10
74101;DHT22;62462;52.530;21.682;2022-11-15T07:43:26;8.60;83.00
74101;DHT22;62462;52.530;21.682;2022-11-15T07:45:56;8.60;82.80
74101;DHT22;62462;52.530;21.682;2022-11-15T07:48:22;8.70;82.80
74101;DHT22;62462;52.530;21.682;2022-11-15T07:50:48;8.70;82.40
74101;DHT22;62462;52.530;21.682;2022-11-15T07:53:14;8.60;82.60
74101;DHT22;62462;52.530;21.682;2022-11-15T07:55:41;8.70;82.70
74101;DHT22;62462;52.530;21.682;2022-11-15T07:58:09;8.70;82.70
74101;DHT22;62462;52.530;21.682;2022-11-15T08:00:35;8.70;82.30
74101;DHT22;62462;52.530;21.682;2022-11-15T08:05:28;8.50;82.40
74101;DHT22;62462;52.530;21.682;2022-11-15T08:07:57;8.40;83.00
74101;DHT22;62462;52.530;21.682;2022-11-15T08:10:23;8.20;83.80
74101;DHT22;62462;52.530;21.682;2022-11-15T08:12:59;8.20;84.60
74101;DHT22;62462;52.530;21.682;2022-11-15T08:15:26;8.20;84.80
74101;DHT22;62462;52.530;21.682;2022-11-15T08:17:56;8.30;84.60
74101;DHT22;62462;52.530;21.682;2022-11-15T08:20:23;8.40;84.30
74101;DHT22;62462;52.530;21.682;2022-11-15T08:22:48;8.40;84.00
74101;DHT22;62462;52.530;21.682;2022-11-15T08:25:15;8.40;84.10
74101;DHT22;62462;52.530;21.682;2022-11-15T08:27:41;8.40;84.00
74101;DHT22;62462;52.530;21.682;2022-11-15T08:30:07;8.40;83.90
74101;DHT22;62462;52.530;21.682;2022-11-15T08:32:33;8.40;83.90
74101;DHT22;62462;52.530;21.682;2022-11-15T08:34:58;8.40;84.00
74101;DHT22;62462;52.530;21.682;2022-11-15T08:37:24;8.50;83.90
74101;DHT22;62462;52.530;21.682;2022-11-15T08:39:50;8.50;83.60
74101;DHT22;62462;52.530;21.682;2022-11-15T08:42:15;8.50;83.50
74101;DHT22;62462;52.530;21.682;2022-11-15T08:44:42;8.50;83.60
74101;DHT22;62462;52.530;21.682;2022-11-15T08:47:08;8.40;83.90
74101;DHT22;62462;52.530;21.682;2022-11-15T08:49:36;8.40;84.10
74101;DHT22;62462;52.530;21.682;2022-11-15T08:52:02;8.30;84.20
74101;DHT22;62462;52.530;21.682;2022-11-15T08:54:28;8.30;84.60
74101;DHT22;62462;52.530;21.682;2022-11-15T08:56:53;8.30;84.70
74101;DHT22;62462;52.530;21.682;2022-11-15T08:59:19;8.30;84.70
74101;DHT22;62462;52.530;21.682;2022-11-15T09:01:46;8.30;84.90
74101;DHT22;62462;52.530;21.682;2022-11-15T09:04:12;8.30;84.50
74101;DHT22;62462;52.530;21.682;2022-11-15T09:06:38;8.30;84.40
74101;DHT22;62462;52.530;21.682;2022-11-15T09:09:03;8.30;84.50
74101;DHT22;62462;52.530;21.682;2022-11-15T09:11:29;8.40;84.40
74101;DHT22;62462;52.530;21.682;2022-11-15T09:13:55;8.40;84.20
74101;DHT22;62462;52.530;21.682;2022-11-15T09:16:21;8.40;85.20
74101;DHT22;62462;52.530;21.682;2022-11-15T09:18:46;8.40;84.20
74101;DHT22;62462;52.530;21.682;2022-11-15T09:21:12;8.40;84.40
74101;DHT22;62462;52.530;21.682;2022-11-15T09:23:38;8.40;84.50
74101;DHT22;62462;52.530;21.682;2022-11-15T09:26:05;8.50;84.30
74101;DHT22;62462;52.530;21.682;2022-11-15T09:28:32;8.50;83.90
74101;DHT22;62462;52.530;21.682;2022-11-15T09:30:59;8.60;83.80
74101;DHT22;62462;52.530;21.682;2022-11-15T09:33:26;8.50;83.60
74101;DHT22;62462;52.530;21.682;2022-11-15T09:35:52;8.40;84.10
74101;DHT22;62462;52.530;21.682;2022-11-15T09:38:19;8.40;84.40
74101;DHT22;62462;52.530;21.682;2022-11-15T09:46:45;8.50;84.10
74101;DHT22;62462;52.530;21.682;2022-11-15T09:49:15;8.50;84.10
74101;DHT22;62462;52.530;21.682;2022-11-15T09:51:44;8.40;84.30
74101;DHT22;62462;52.530;21.682;2022-11-15T09:56:42;8.50;84.50
74101;DHT22;62462;52.530;21.682;2022-11-15T10:05:20;8.60;84.20
74101;DHT22;62462;52.530;21.682;2022-11-15T10:08:12;8.60;83.70
74101;DHT22;62462;52.530;21.682;2022-11-15T10:10:44;8.50;83.80
74101;DHT22;62462;52.530;21.682;2022-11-15T10:13:52;8.40;84.20
74101;DHT22;62462;52.530;21.682;2022-11-15T10:22:03;8.40;85.10
74101;DHT22;62462;52.530;21.682;2022-11-15T10:24:39;8.40;84.70
74101;DHT22;62462;52.530;21.682;2022-11-15T10:27:18;8.40;84.90
74101;DHT22;62462;52.530;21.682;2022-11-15T10:29:46;8.30;85.10
74101;DHT22;62462;52.530;21.682;2022-11-15T10:32:14;8.40;85.30
74101;DHT22;62462;52.530;21.682;2022-11-15T10:34:40;8.40;85.00
74101;DHT22;62462;52.530;21.682;2022-11-15T10:37:05;8.40;85.00
74101;DHT22;62462;52.530;21.682;2022-11-15T10:39:31;8.40;85.10
74101;DHT22;62462;52.530;21.682;2022-11-15T10:42:35;8.40;85.10
74101;DHT22;62462;52.530;21.682;2022-11-15T10:45:00;8.40;85.50
74101;DHT22;62462;52.530;21.682;2022-11-15T10:47:27;8.50;85.00
74101;DHT22;62462;52.530;21.682;2022-11-15T10:49:59;8.50;84.70
74101;DHT22;62462;52.530;21.682;2022-11-15T10:52:26;8.60;84.40
74101;DHT22;62462;52.530;21.682;2022-11-15T10:55:03;8.60;84.30
74101;DHT22;62462;52.530;21.682;2022-11-15T10:57:33;8.50;83.70
74101;DHT22;62462;52.530;21.682;2022-11-15T11:05:35;8.30;84.90
74101;DHT22;62462;52.530;21.682;2022-11-15T11:10:55;8.40;84.80
74101;DHT22;62462;52.530;21.682;2022-11-15T11:13:27;8.40;84.90
74101;DHT22;62462;52.530;21.682;2022-11-15T11:24:34;8.60;84.10
74101;DHT22;62462;52.530;21.682;2022-11-15T11:37:40;8.40;84.80
74101;DHT22;62462;52.530;21.682;2022-11-15T11:43:00;8.30;85.50
74101;DHT22;62462;52.530;21.682;2022-11-15T11:48:21;8.30;85.60
74101;DHT22;62462;52.530;21.682;2022-11-15T11:50:49;8.30;86.00
74101;DHT22;62462;52.530;21.682;2022-11-15T11:53:23;8.30;85.80
74101;DHT22;62462;52.530;21.682;2022-11-15T11:55:57;8.40;85.70
74101;DHT22;62462;52.530;21.682;2022-11-15T11:58:33;8.50;85.60
74101;DHT22;62462;52.530;21.682;2022-11-15T12:01:16;8.50;85.20
74101;DHT22;62462;52.530;21.682;2022-11-15T12:06:53;8.60;84.80
74101;DHT22;62462;52.530;21.682;2022-11-15T12:17:41;8.60;84.40
74101;DHT22;62462;52.530;21.682;2022-11-15T12:20:22;8.60;84.30
74101;DHT22;62462;52.530;21.682;2022-11-15T12:23:01;8.60;84.00
74101;DHT22;62462;52.530;21.682;2022-11-15T12:26:09;8.60;84.00
74101;DHT22;62462;52.530;21.682;2022-11-15T12:28:38;8.70;84.10
74101;DHT22;62462;52.530;21.682;2022-11-15T12:31:19;8.70;83.60
74101;DHT22;62462;52.530;21.682;2022-11-15T12:33:47;8.60;83.70
74101;DHT22;62462;52.530;21.682;2022-11-15T12:39:01;8.50;84.30
74101;DHT22;62462;52.530;21.682;2022-11-15T13:04:44;8.30;85.20
74101;DHT22;62462;52.530;21.682;2022-11-15T13:12:54;8.30;85.30
74101;DHT22;62462;52.530;21.682;2022-11-15T13:17:55;8.20;85.40
74101;DHT22;62462;52.530;21.682;2022-11-15T13:23:00;8.40;85.20
74101;DHT22;62462;52.530;21.682;2022-11-15T13:28:01;8.50;84.80
74101;DHT22;62462;52.530;21.682;2022-11-15T13:30:30;8.50;84.50
74101;DHT22;62462;52.530;21.682;2022-11-15T13:35:41;8.60;83.90
74101;DHT22;62462;52.530;21.682;2022-11-15T13:40:52;8.40;84.60
74101;DHT22;62462;52.530;21.682;2022-11-15T13:46:06;8.40;84.80
74101;DHT22;62462;52.530;21.682;2022-11-15T13:48:32;8.50;84.70
74101;DHT22;62462;52.530;21.682;2022-11-15T13:51:00;8.50;84.50
74101;DHT22;62462;52.530;21.682;2022-11-15T13:53:27;8.60;84.40
74101;DHT22;62462;52.530;21.682;2022-11-15T13:55:54;8.60;84.10
74101;DHT22;62462;52.530;21.682;2022-11-15T13:58:21;8.60;84.00
74101;DHT22;62462;52.530;21.682;2022-11-15T14:00:46;8.60;84.80
74101;DHT22;62462;52.530;21.682;2022-11-15T14:03:23;8.70;83.80
74101;DHT22;62462;52.530;21.682;2022-11-15T14:06:11;8.60;83.40
74101;DHT22;62462;52.530;21.682;2022-11-15T14:11:27;8.60;83.50
74101;DHT22;62462;52.530;21.682;2022-11-15T14:16:39;8.70;83.20
74101;DHT22;62462;52.530;21.682;2022-11-15T14:19:06;8.60;83.20
74101;DHT22;62462;52.530;21.682;2022-11-15T14:21:34;8.70;83.30
74101;DHT22;62462;52.530;21.682;2022-11-15T14:24:17;8.70;83.20
74101;DHT22;62462;52.530;21.682;2022-11-15T14:26:44;8.70;83.20
74101;DHT22;62462;52.530;21.682;2022-11-15T14:29:26;8.70;83.00
74101;DHT22;62462;52.530;21.682;2022-11-15T14:31:54;8.70;83.00
74101;DHT22;62462;52.530;21.682;2022-11-15T14:34:32;8.70;83.00
74101;DHT22;62462;52.530;21.682;2022-11-15T14:36:57;8.70;83.00
74101;DHT22;62462;52.530;21.682;2022-11-15T14:39:23;8.70;82.90
74101;DHT22;62462;52.530;21.682;2022-11-15T14:41:50;8.70;82.40
74101;DHT22;62462;52.530;21.682;2022-11-15T14:44:16;8.70;82.40
74101;DHT22;62462;52.530;21.682;2022-11-15T14:46:43;8.60;82.50
74101;DHT22;62462;52.530;21.682;2022-11-15T14:49:09;8.60;83.10
74101;DHT22;62462;52.530;21.682;2022-11-15T14:51:35;8.60;82.90
74101;DHT22;62462;52.530;21.682;2022-11-15T14:54:01;8.60;82.60
74101;DHT22;62462;52.530;21.682;2022-11-15T14:56:27;8.60;82.80
74101;DHT22;62462;52.530;21.682;2022-11-15T14:58:52;8.60;82.90
74101;DHT22;62462;52.530;21.682;2022-11-15T15:01:26;8.60;83.00
74101;DHT22;62462;52.530;21.682;2022-11-15T15:03:53;8.60;83.00
74101;DHT22;62462;52.530;21.682;2022-11-15T15:06:22;8.70;82.80
74101;DHT22;62462;52.530;21.682;2022-11-15T15:08:48;8.60;82.70
74101;DHT22;62462;52.530;21.682;2022-11-15T15:11:24;8.60;82.80
74101;DHT22;62462;52.530;21.682;2022-11-15T15:13:52;8.70;82.90
74101;DHT22;62462;52.530;21.682;2022-11-15T15:16:18;8.70;82.70
74101;DHT22;62462;52.530;21.682;2022-11-15T15:18:44;8.70;82.70
74101;DHT22;62462;52.530;21.682;2022-11-15T15:21:23;8.70;82.50
74101;DHT22;62462;52.530;21.682;2022-11-15T15:23:50;8.70;82.30
74101;DHT22;62462;52.530;21.682;2022-11-15T15:26:16;8.70;82.40
74101;DHT22;62462;52.530;21.682;2022-11-15T15:28:42;8.70;82.50
74101;DHT22;62462;52.530;21.682;2022-11-15T15:31:11;8.70;82.30
74101;DHT22;62462;52.530;21.682;2022-11-15T15:33:38;8.60;82.20
74101;DHT22;62462;52.530;21.682;2022-11-15T15:36:04;8.70;82.40
74101;DHT22;62462;52.530;21.682;2022-11-15T15:38:30;8.70;82.50
74101;DHT22;62462;52.530;21.682;2022-11-15T15:40:56;8.70;82.50
74101;DHT22;62462;52.530;21.682;2022-11-15T15:43:21;8.70;82.50
74101;DHT22;62462;52.530;21.682;2022-11-15T15:45:47;8.70;82.50
74101;DHT22;62462;52.530;21.682;2022-11-15T15:48:14;8.70;82.50
74101;DHT22;62462;52.530;21.682;2022-11-15T15:50:41;8.70;82.50
74101;DHT22;62462;52.530;21.682;2022-11-15T15:53:09;8.80;82.50
74101;DHT22;62462;52.530;21.682;2022-11-15T15:55:36;8.70;82.20
74101;DHT22;62462;52.530;21.682;2022-11-15T15:58:02;8.70;82.10
74101;DHT22;62462;52.530;21.682;2022-11-15T16:00:28;8.70;82.10
74101;DHT22;62462;52.530;21.682;2022-11-15T16:02:54;8.70;82.10
74101;DHT22;62462;52.530;21.682;2022-11-15T16:05:21;8.70;82.10
74101;DHT22;62462;52.530;21.682;2022-11-15T16:07:47;8.70;82.10
74101;DHT22;62462;52.530;21.682;2022-11-15T16:12:53;8.60;82.40
74101;DHT22;62462;52.530;21.682;2022-11-15T16:15:20;8.60;82.30
74101;DHT22;62462;52.530;21.682;2022-11-15T16:17:56;8.60;82.30
74101;DHT22;62462;52.530;21.682;2022-11-15T16:20:35;8.70;82.40
74101;DHT22;62462;52.530;21.682;2022-11-15T16:23:04;8.70;82.30
74101;DHT22;62462;52.530;21.682;2022-11-15T16:25:33;8.70;82.30
74101;DHT22;62462;52.530;21.682;2022-11-15T16:27:59;8.60;82.30
74101;DHT22;62462;52.530;21.682;2022-11-15T16:30:25;8.60;82.60
74101;DHT22;62462;52.530;21.682;2022-11-15T16:32:51;8.50;82.70
74101;DHT22;62462;52.530;21.682;2022-11-15T16:35:18;8.60;82.60
74101;DHT22;62462;52.530;21.682;2022-11-15T16:37:44;8.60;82.60
74101;DHT22;62462;52.530;21.682;2022-11-15T16:40:32;8.50;82.80
74101;DHT22;62462;52.530;21.682;2022-11-15T16:42:58;8.60;82.70
74101;DHT22;62462;52.530;21.682;2022-11-15T16:45:27;8.60;82.50
74101;DHT22;62462;52.530;21.682;2022-11-15T16:47:55;8.60;82.40
74101;DHT22;62462;52.530;21.682;2022-11-15T16:50:27;8.60;82.30
74101;DHT22;62462;52.530;21.682;2022-11-15T16:52:55;8.70;82.30
74101;DHT22;62462;52.530;21.682;2022-11-15T16:55:22;8.60;82.30
74101;DHT22;62462;52.530;21.682;2022-11-15T16:57:48;8.60;82.40
74101;DHT22;62462;52.530;21.682;2022-11-15T17:00:16;8.60;82.50
74101;DHT22;62462;52.530;21.682;2022-11-15T17:02:44;8.60;82.60
74101;DHT22;62462;52.530;21.682;2022-11-15T17:05:10;8.60;82.80
74101;DHT22;62462;52.530;21.682;2022-11-15T17:07:36;8.60;82.70
74101;DHT22;62462;52.530;21.682;2022-11-15T17:10:02;8.60;82.70
74101;DHT22;62462;52.530;21.682;2022-11-15T17:12:27;8.60;82.60
74101;DHT22;62462;52.530;21.682;2022-11-15T17:14:55;8.60;82.50
74101;DHT22;62462;52.530;21.682;2022-11-15T17:17:21;8.60;82.40
74101;DHT22;62462;52.530;21.682;2022-11-15T17:19:47;8.60;82.40
74101;DHT22;62462;52.530;21.682;2022-11-15T17:22:13;8.60;82.40
74101;DHT22;62462;52.530;21.682;2022-11-15T17:24:38;8.60;82.20
74101;DHT22;62462;52.530;21.682;2022-11-15T17:27:04;8.60;82.20
74101;DHT22;62462;52.530;21.682;2022-11-15T17:29:30;8.60;82.20
74101;DHT22;62462;52.530;21.682;2022-11-15T17:31:55;8.60;82.30
74101;DHT22;62462;52.530;21.682;2022-11-15T17:34:21;8.60;82.40
74101;DHT22;62462;52.530;21.682;2022-11-15T17:36:48;8.60;82.50
74101;DHT22;62462;52.530;21.682;2022-11-15T17:39:14;8.60;82.50
74101;DHT22;62462;52.530;21.682;2022-11-15T17:41:39;8.60;82.20
74101;DHT22;62462;52.530;21.682;2022-11-15T17:44:05;8.60;82.10
74101;DHT22;62462;52.530;21.682;2022-11-15T17:46:31;8.60;82.10
74101;DHT22;62462;52.530;21.682;2022-11-15T17:48:58;8.60;82.20
74101;DHT22;62462;52.530;21.682;2022-11-15T17:51:24;8.60;82.30
74101;DHT22;62462;52.530;21.682;2022-11-15T17:53:51;8.60;82.20
74101;DHT22;62462;52.530;21.682;2022-11-15T17:56:22;8.60;82.30
74101;DHT22;62462;52.530;21.682;2022-11-15T17:58:53;8.60;82.20
74101;DHT22;62462;52.530;21.682;2022-11-15T18:01:24;8.60;82.00
74101;DHT22;62462;52.530;21.682;2022-11-15T18:03:50;8.60;82.20
74101;DHT22;62462;52.530;21.682;2022-11-15T18:06:17;8.60;82.40
74101;DHT22;62462;52.530;21.682;2022-11-15T18:08:49;8.60;82.30